sensor_id;sensor_type;location;lat;lon;timestamp;pressure;altitude;pressure_sealevel;temperature
70819;BMP280;58439;51.046;13.692;2022-12-29T00:00:20;99462.00;;;10.05
70819;BMP280;58439;51.046;13.692;2022-12-29T00:02:51;99459.97;;;10.07
70819;BMP280;58439;51.046;13.692;2022-12-29T00:05:18;99449.50;;;10.07
70819;BMP280;58439;51.046;13.692;2022-12-29T00:07:45;99445.91;;;10.14
70819;BMP280;58439;51.046;13.692;2022-12-29T00:10:12;99454.72;;;10.20
70819;BMP280;58439;51.046;13.692;2022-12-29T00:12:39;99452.31;;;10.25
70819;BMP280;58439;51.046;13.692;2022-12-29T00:15:25;99446.06;;;10.33
70819;BMP280;58439;51.046;13.692;2022-12-29T00:18:04;99441.25;;;10.36
70819;BMP280;58439;51.046;13.692;2022-12-29T00:20:35;99449.88;;;10.37
70819;BMP280;58439;51.046;13.692;2022-12-29T00:23:21;99439.59;;;10.42
70819;BMP280;58439;51.046;13.692;2022-12-29T00:26:16;99425.72;;;10.41
70819;BMP280;58439;51.046;13.692;2022-12-29T00:29:02;99430.16;;;10.41
70819;BMP280;58439;51.046;13.692;2022-12-29T00:31:48;99412.84;;;10.40
70819;BMP280;58439;51.046;13.692;2022-12-29T00:34:34;99410.22;;;10.46
70819;BMP280;58439;51.046;13.692;2022-12-29T00:37:20;99416.84;;;10.56
70819;BMP280;58439;51.046;13.692;2022-12-29T00:40:07;99426.88;;;10.59
70819;BMP280;58439;51.046;13.692;2022-12-29T00:42:53;99427.66;;;10.66
70819;BMP280;58439;51.046;13.692;2022-12-29T00:45:41;99424.22;;;10.65
70819;BMP280;58439;51.046;13.692;2022-12-29T00:48:08;99410.16;;;10.60
70819;BMP280;58439;51.046;13.692;2022-12-29T00:50:35;99410.06;;;10.48
70819;BMP280;58439;51.046;13.692;2022-12-29T00:53:02;99404.47;;;10.25
70819;BMP280;58439;51.046;13.692;2022-12-29T00:55:30;99398.91;;;9.95
70819;BMP280;58439;51.046;13.692;2022-12-29T00:57:57;99404.72;;;9.77
70819;BMP280;58439;51.046;13.692;2022-12-29T01:00:24;99403.72;;;9.64
70819;BMP280;58439;51.046;13.692;2022-12-29T01:02:52;99399.31;;;9.65
70819;BMP280;58439;51.046;13.692;2022-12-29T01:05:19;99399.50;;;9.57
70819;BMP280;58439;51.046;13.692;2022-12-29T01:07:46;99419.00;;;9.74
70819;BMP280;58439;51.046;13.692;2022-12-29T01:10:13;99406.94;;;9.73
70819;BMP280;58439;51.046;13.692;2022-12-29T01:12:41;99400.09;;;9.72
70819;BMP280;58439;51.046;13.692;2022-12-29T01:15:11;99402.31;;;9.62
70819;BMP280;58439;51.046;13.692;2022-12-29T01:17:39;99407.75;;;9.47
70819;BMP280;58439;51.046;13.692;2022-12-29T01:20:06;99407.13;;;9.32
70819;BMP280;58439;51.046;13.692;2022-12-29T01:22:34;99414.16;;;9.31
70819;BMP280;58439;51.046;13.692;2022-12-29T01:25:03;99404.53;;;9.39
70819;BMP280;58439;51.046;13.692;2022-12-29T01:27:30;99404.94;;;9.55
70819;BMP280;58439;51.046;13.692;2022-12-29T01:29:57;99396.31;;;9.75
70819;BMP280;58439;51.046;13.692;2022-12-29T01:32:24;99393.69;;;9.81
70819;BMP280;58439;51.046;13.692;2022-12-29T01:34:51;99397.91;;;9.82
70819;BMP280;58439;51.046;13.692;2022-12-29T01:37:18;99390.66;;;9.84
70819;BMP280;58439;51.046;13.692;2022-12-29T01:39:45;99398.69;;;9.89
70819;BMP280;58439;51.046;13.692;2022-12-29T01:42:17;99404.94;;;9.95
70819;BMP280;58439;51.046;13.692;2022-12-29T01:44:54;99400.88;;;9.92
70819;BMP280;58439;51.046;13.692;2022-12-29T01:47:35;99398.88;;;10.01
70819;BMP280;58439;51.046;13.692;2022-12-29T01:50:10;99398.69;;;10.03
70819;BMP280;58439;51.046;13.692;2022-12-29T01:52:43;99390.66;;;9.98
70819;BMP280;58439;51.046;13.692;2022-12-29T01:55:12;99394.31;;;9.97
70819;BMP280;58439;51.046;13.692;2022-12-29T01:57:43;99387.44;;;9.82
70819;BMP280;58439;51.046;13.692;2022-12-29T02:00:40;99388.06;;;9.71
70819;BMP280;58439;51.046;13.692;2022-12-29T02:03:08;99374.00;;;9.79
70819;BMP280;58439;51.046;13.692;2022-12-29T02:05:56;99376.00;;;9.83
70819;BMP280;58439;51.046;13.692;2022-12-29T02:08:28;99360.94;;;9.72
70819;BMP280;58439;51.046;13.692;2022-12-29T02:10:56;99367.41;;;9.50
70819;BMP280;58439;51.046;13.692;2022-12-29T02:13:24;99344.50;;;9.58
70819;BMP280;58439;51.046;13.692;2022-12-29T02:18:48;99342.03;;;9.83
70819;BMP280;58439;51.046;13.692;2022-12-29T02:21:41;99358.72;;;9.96
70819;BMP280;58439;51.046;13.692;2022-12-29T02:32:36;99350.97;;;10.27
70819;BMP280;58439;51.046;13.692;2022-12-29T02:38:12;99347.38;;;10.28
70819;BMP280;58439;51.046;13.692;2022-12-29T02:43:21;99342.50;;;10.38
70819;BMP280;58439;51.046;13.692;2022-12-29T02:48:59;99341.25;;;10.47
70819;BMP280;58439;51.046;13.692;2022-12-29T02:51:43;99342.03;;;10.55
70819;BMP280;58439;51.046;13.692;2022-12-29T02:54:11;99342.75;;;10.68
70819;BMP280;58439;51.046;13.692;2022-12-29T02:56:57;99342.34;;;10.65
70819;BMP280;58439;51.046;13.692;2022-12-29T02:59:24;99341.09;;;10.74
70819;BMP280;58439;51.046;13.692;2022-12-29T03:02:13;99334.28;;;10.73
70819;BMP280;58439;51.046;13.692;2022-12-29T03:07:23;99341.09;;;10.81
70819;BMP280;58439;51.046;13.692;2022-12-29T03:12:31;99339.56;;;10.91
70819;BMP280;58439;51.046;13.692;2022-12-29T03:15:33;99330.88;;;10.97
70819;BMP280;58439;51.046;13.692;2022-12-29T03:18:23;99328.44;;;11.02
70819;BMP280;58439;51.046;13.692;2022-12-29T03:20:57;99336.66;;;11.06
70819;BMP280;58439;51.046;13.692;2022-12-29T03:23:28;99331.16;;;11.14
70819;BMP280;58439;51.046;13.692;2022-12-29T03:25:59;99311.22;;;11.20
70819;BMP280;58439;51.046;13.692;2022-12-29T03:28:32;99324.22;;;11.26
70819;BMP280;58439;51.046;13.692;2022-12-29T03:31:03;99318.41;;;11.24
70819;BMP280;58439;51.046;13.692;2022-12-29T03:33:32;99310.50;;;11.31
70819;BMP280;58439;51.046;13.692;2022-12-29T03:36:12;99310.97;;;11.28
70819;BMP280;58439;51.046;13.692;2022-12-29T03:38:46;99308.53;;;11.26
70819;BMP280;58439;51.046;13.692;2022-12-29T03:41:18;99302.66;;;11.31
70819;BMP280;58439;51.046;13.692;2022-12-29T03:43:48;99306.47;;;11.35
70819;BMP280;58439;51.046;13.692;2022-12-29T03:46:15;99311.84;;;11.40
70819;BMP280;58439;51.046;13.692;2022-12-29T03:48:42;99293.91;;;11.37
70819;BMP280;58439;51.046;13.692;2022-12-29T03:51:09;99290.16;;;11.33
70819;BMP280;58439;51.046;13.692;2022-12-29T03:53:36;99301.28;;;11.28
70819;BMP280;58439;51.046;13.692;2022-12-29T03:56:03;99290.38;;;11.31
70819;BMP280;58439;51.046;13.692;2022-12-29T03:58:32;99283.78;;;11.47
70819;BMP280;58439;51.046;13.692;2022-12-29T04:01:05;99287.09;;;11.54
70819;BMP280;58439;51.046;13.692;2022-12-29T04:03:35;99287.31;;;11.53
70819;BMP280;58439;51.046;13.692;2022-12-29T04:06:04;99282.09;;;11.53
70819;BMP280;58439;51.046;13.692;2022-12-29T04:09:10;99289.44;;;11.44
70819;BMP280;58439;51.046;13.692;2022-12-29T04:11:43;99275.97;;;11.41
70819;BMP280;58439;51.046;13.692;2022-12-29T04:14:10;99282.03;;;11.41
70819;BMP280;58439;51.046;13.692;2022-12-29T04:16:49;99275.75;;;11.42
70819;BMP280;58439;51.046;13.692;2022-12-29T04:19:16;99278.59;;;11.41
70819;BMP280;58439;51.046;13.692;2022-12-29T04:21:43;99274.16;;;11.41
70819;BMP280;58439;51.046;13.692;2022-12-29T04:24:10;99260.00;;;11.49
70819;BMP280;58439;51.046;13.692;2022-12-29T04:26:40;99279.72;;;11.51
70819;BMP280;58439;51.046;13.692;2022-12-29T04:29:28;99281.97;;;11.48
70819;BMP280;58439;51.046;13.692;2022-12-29T04:32:11;99279.72;;;11.51
70819;BMP280;58439;51.046;13.692;2022-12-29T04:34:44;99274.91;;;11.48
70819;BMP280;58439;51.046;13.692;2022-12-29T04:37:11;99273.31;;;11.47
70819;BMP280;58439;51.046;13.692;2022-12-29T04:39:38;99264.78;;;11.52
70819;BMP280;58439;51.046;13.692;2022-12-29T04:42:06;99269.31;;;11.63
70819;BMP280;58439;51.046;13.692;2022-12-29T04:44:34;99281.75;;;11.68
70819;BMP280;58439;51.046;13.692;2022-12-29T04:47:11;99267.72;;;11.80
70819;BMP280;58439;51.046;13.692;2022-12-29T04:49:58;99269.47;;;11.86
70819;BMP280;58439;51.046;13.692;2022-12-29T04:52:38;99278.13;;;11.87
70819;BMP280;58439;51.046;13.692;2022-12-29T04:55:07;99267.56;;;11.75
70819;BMP280;58439;51.046;13.692;2022-12-29T04:57:44;99280.06;;;11.55
70819;BMP280;58439;51.046;13.692;2022-12-29T05:00:30;99282.13;;;10.78
70819;BMP280;58439;51.046;13.692;2022-12-29T05:02:57;99278.88;;;10.51
70819;BMP280;58439;51.046;13.692;2022-12-29T05:05:25;99282.91;;;10.54
70819;BMP280;58439;51.046;13.692;2022-12-29T05:07:52;99287.22;;;10.73
70819;BMP280;58439;51.046;13.692;2022-12-29T05:10:19;99292.59;;;10.78
70819;BMP280;58439;51.046;13.692;2022-12-29T05:12:48;99292.00;;;10.76
70819;BMP280;58439;51.046;13.692;2022-12-29T05:15:15;99288.25;;;10.97
70819;BMP280;58439;51.046;13.692;2022-12-29T05:17:43;99292.09;;;11.19
70819;BMP280;58439;51.046;13.692;2022-12-29T05:20:11;99286.41;;;10.97
70819;BMP280;58439;51.046;13.692;2022-12-29T05:22:38;99291.16;;;10.82
70819;BMP280;58439;51.046;13.692;2022-12-29T05:25:06;99278.34;;;10.99
70819;BMP280;58439;51.046;13.692;2022-12-29T05:27:43;99282.56;;;11.25
70819;BMP280;58439;51.046;13.692;2022-12-29T05:30:28;99280.22;;;11.17
70819;BMP280;58439;51.046;13.692;2022-12-29T05:32:55;99298.19;;;11.07
70819;BMP280;58439;51.046;13.692;2022-12-29T05:35:23;99298.59;;;11.10
70819;BMP280;58439;51.046;13.692;2022-12-29T05:37:51;99297.34;;;11.19
70819;BMP280;58439;51.046;13.692;2022-12-29T05:40:18;99307.72;;;11.26
70819;BMP280;58439;51.046;13.692;2022-12-29T05:42:45;99309.50;;;11.32
70819;BMP280;58439;51.046;13.692;2022-12-29T05:45:28;99310.38;;;11.44
70819;BMP280;58439;51.046;13.692;2022-12-29T05:48:04;99314.59;;;11.45
70819;BMP280;58439;51.046;13.692;2022-12-29T05:50:42;99305.63;;;11.35
70819;BMP280;58439;51.046;13.692;2022-12-29T05:56:16;99312.56;;;11.47
70819;BMP280;58439;51.046;13.692;2022-12-29T05:58:46;99307.41;;;11.41
70819;BMP280;58439;51.046;13.692;2022-12-29T06:01:14;99318.22;;;11.44
70819;BMP280;58439;51.046;13.692;2022-12-29T06:03:41;99319.69;;;11.40
70819;BMP280;58439;51.046;13.692;2022-12-29T06:06:13;99316.06;;;11.41
70819;BMP280;58439;51.046;13.692;2022-12-29T06:08:41;99323.25;;;11.46
70819;BMP280;58439;51.046;13.692;2022-12-29T06:11:09;99318.00;;;11.46
70819;BMP280;58439;51.046;13.692;2022-12-29T06:13:36;99325.34;;;11.37
70819;BMP280;58439;51.046;13.692;2022-12-29T06:16:04;99323.97;;;11.35
70819;BMP280;58439;51.046;13.692;2022-12-29T06:18:31;99313.50;;;11.35
70819;BMP280;58439;51.046;13.692;2022-12-29T06:23:53;99324.03;;;11.46
70819;BMP280;58439;51.046;13.692;2022-12-29T06:26:20;99324.44;;;11.50
70819;BMP280;58439;51.046;13.692;2022-12-29T06:28:47;99312.56;;;11.47
70819;BMP280;58439;51.046;13.692;2022-12-29T06:31:15;99306.53;;;11.47
70819;BMP280;58439;51.046;13.692;2022-12-29T06:33:46;99305.38;;;11.43
70819;BMP280;58439;51.046;13.692;2022-12-29T06:41:29;99300.72;;;10.95
70819;BMP280;58439;51.046;13.692;2022-12-29T06:44:53;99302.53;;;10.94
70819;BMP280;58439;51.046;13.692;2022-12-29T06:47:33;99293.25;;;10.98
70819;BMP280;58439;51.046;13.692;2022-12-29T06:50:31;99297.25;;;11.01
70819;BMP280;58439;51.046;13.692;2022-12-29T06:52:58;99299.63;;;11.09
70819;BMP280;58439;51.046;13.692;2022-12-29T06:55:25;99303.69;;;10.98
70819;BMP280;58439;51.046;13.692;2022-12-29T06:57:56;99304.16;;;10.95
70819;BMP280;58439;51.046;13.692;2022-12-29T07:00:24;99302.41;;;10.89
70819;BMP280;58439;51.046;13.692;2022-12-29T07:02:51;99308.66;;;10.88
70819;BMP280;58439;51.046;13.692;2022-12-29T07:05:19;99303.16;;;10.90
70819;BMP280;58439;51.046;13.692;2022-12-29T07:07:46;99301.78;;;10.87
70819;BMP280;58439;51.046;13.692;2022-12-29T07:10:13;99304.47;;;10.81
70819;BMP280;58439;51.046;13.692;2022-12-29T07:12:40;99307.34;;;10.72
70819;BMP280;58439;51.046;13.692;2022-12-29T07:15:07;99319.63;;;10.72
70819;BMP280;58439;51.046;13.692;2022-12-29T07:17:34;99313.56;;;10.71
70819;BMP280;58439;51.046;13.692;2022-12-29T07:20:02;99331.81;;;10.78
70819;BMP280;58439;51.046;13.692;2022-12-29T07:22:29;99332.38;;;10.87
70819;BMP280;58439;51.046;13.692;2022-12-29T07:24:56;99319.03;;;10.95
70819;BMP280;58439;51.046;13.692;2022-12-29T07:27:23;99327.75;;;10.89
70819;BMP280;58439;51.046;13.692;2022-12-29T07:29:51;99336.50;;;11.01
70819;BMP280;58439;51.046;13.692;2022-12-29T07:32:18;99334.78;;;11.13
70819;BMP280;58439;51.046;13.692;2022-12-29T07:34:45;99331.00;;;11.34
70819;BMP280;58439;51.046;13.692;2022-12-29T07:37:15;99315.13;;;11.36
70819;BMP280;58439;51.046;13.692;2022-12-29T07:40:16;99313.03;;;11.19
70819;BMP280;58439;51.046;13.692;2022-12-29T07:42:43;99300.94;;;11.18
70819;BMP280;58439;51.046;13.692;2022-12-29T07:45:14;99303.84;;;11.10
70819;BMP280;58439;51.046;13.692;2022-12-29T07:48:00;99302.28;;;11.02
70819;BMP280;58439;51.046;13.692;2022-12-29T07:50:56;99314.91;;;11.06
70819;BMP280;58439;51.046;13.692;2022-12-29T07:53:23;99306.63;;;11.15
70819;BMP280;58439;51.046;13.692;2022-12-29T07:55:51;99311.16;;;11.26
70819;BMP280;58439;51.046;13.692;2022-12-29T07:58:18;99308.34;;;11.28
70819;BMP280;58439;51.046;13.692;2022-12-29T08:00:45;99313.84;;;11.38
70819;BMP280;58439;51.046;13.692;2022-12-29T08:03:12;99311.63;;;11.42
70819;BMP280;58439;51.046;13.692;2022-12-29T08:05:39;99312.25;;;11.37
70819;BMP280;58439;51.046;13.692;2022-12-29T08:08:06;99319.31;;;11.37
70819;BMP280;58439;51.046;13.692;2022-12-29T08:10:33;99330.34;;;11.39
70819;BMP280;58439;51.046;13.692;2022-12-29T08:13:00;99332.28;;;11.50
70819;BMP280;58439;51.046;13.692;2022-12-29T08:15:27;99349.09;;;11.60
70819;BMP280;58439;51.046;13.692;2022-12-29T08:17:58;99351.81;;;11.72
70819;BMP280;58439;51.046;13.692;2022-12-29T08:20:25;99349.72;;;11.81
70819;BMP280;58439;51.046;13.692;2022-12-29T08:22:52;99353.22;;;11.93
70819;BMP280;58439;51.046;13.692;2022-12-29T08:25:20;99356.56;;;12.00
70819;BMP280;58439;51.046;13.692;2022-12-29T08:27:47;99357.38;;;12.01
70819;BMP280;58439;51.046;13.692;2022-12-29T08:30:14;99356.00;;;11.98
70819;BMP280;58439;51.046;13.692;2022-12-29T08:32:41;99349.38;;;11.96
70819;BMP280;58439;51.046;13.692;2022-12-29T08:35:08;99355.03;;;11.93
70819;BMP280;58439;51.046;13.692;2022-12-29T08:37:36;99351.00;;;11.90
70819;BMP280;58439;51.046;13.692;2022-12-29T08:40:05;99345.34;;;11.93
70819;BMP280;58439;51.046;13.692;2022-12-29T08:42:32;99352.22;;;11.94
70819;BMP280;58439;51.046;13.692;2022-12-29T08:44:59;99342.94;;;11.92
70819;BMP280;58439;51.046;13.692;2022-12-29T08:47:27;99352.63;;;11.91
70819;BMP280;58439;51.046;13.692;2022-12-29T08:55:09;99353.50;;;11.85
70819;BMP280;58439;51.046;13.692;2022-12-29T08:58:07;99354.28;;;11.85
70819;BMP280;58439;51.046;13.692;2022-12-29T09:01:34;99345.97;;;11.95
70819;BMP280;58439;51.046;13.692;2022-12-29T09:08:50;99340.91;;;11.94
70819;BMP280;58439;51.046;13.692;2022-12-29T09:11:53;99343.53;;;11.94
70819;BMP280;58439;51.046;13.692;2022-12-29T09:14:21;99343.25;;;12.02
70819;BMP280;58439;51.046;13.692;2022-12-29T09:16:51;99337.84;;;11.97
70819;BMP280;58439;51.046;13.692;2022-12-29T09:19:36;99325.47;;;12.04
70819;BMP280;58439;51.046;13.692;2022-12-29T09:22:03;99324.03;;;12.08
70819;BMP280;58439;51.046;13.692;2022-12-29T09:24:30;99333.72;;;12.07
70819;BMP280;58439;51.046;13.692;2022-12-29T09:26:57;99344.31;;;12.12
70819;BMP280;58439;51.046;13.692;2022-12-29T09:29:24;99330.03;;;12.27
70819;BMP280;58439;51.046;13.692;2022-12-29T09:31:52;99326.50;;;12.33
70819;BMP280;58439;51.046;13.692;2022-12-29T09:34:27;99331.34;;;12.36
70819;BMP280;58439;51.046;13.692;2022-12-29T09:37:25;99334.97;;;12.35
70819;BMP280;58439;51.046;13.692;2022-12-29T09:40:23;99334.75;;;12.36
70819;BMP280;58439;51.046;13.692;2022-12-29T09:43:48;99340.25;;;12.47
70819;BMP280;58439;51.046;13.692;2022-12-29T09:46:53;99346.38;;;12.40
70819;BMP280;58439;51.046;13.692;2022-12-29T09:52:24;99348.81;;;12.42
70819;BMP280;58439;51.046;13.692;2022-12-29T09:55:13;99343.94;;;12.46
70819;BMP280;58439;51.046;13.692;2022-12-29T10:01:05;99335.78;;;12.65
70819;BMP280;58439;51.046;13.692;2022-12-29T10:04:05;99334.41;;;12.74
70819;BMP280;58439;51.046;13.692;2022-12-29T10:07:15;99328.75;;;12.89
70819;BMP280;58439;51.046;13.692;2022-12-29T10:16:51;99336.53;;;16.87
70819;BMP280;58439;51.046;13.692;2022-12-29T10:26:01;99338.16;;;20.03
70819;BMP280;58439;51.046;13.692;2022-12-29T10:28:59;99330.53;;;20.25
70819;BMP280;58439;51.046;13.692;2022-12-29T10:34:55;99311.03;;;20.06
70819;BMP280;58439;51.046;13.692;2022-12-29T10:37:56;99333.09;;;18.83
70819;BMP280;58439;51.046;13.692;2022-12-29T10:40:49;99321.25;;;17.41
70819;BMP280;58439;51.046;13.692;2022-12-29T10:43:32;99309.81;;;15.22
70819;BMP280;58439;51.046;13.692;2022-12-29T10:46:28;99294.50;;;14.52
70819;BMP280;58439;51.046;13.692;2022-12-29T10:48:56;99299.34;;;14.60
70819;BMP280;58439;51.046;13.692;2022-12-29T10:51:30;99309.72;;;14.50
70819;BMP280;58439;51.046;13.692;2022-12-29T10:54:10;99296.56;;;14.66
70819;BMP280;58439;51.046;13.692;2022-12-29T10:56:41;99297.44;;;17.31
70819;BMP280;58439;51.046;13.692;2022-12-29T10:59:26;99278.69;;;19.65
70819;BMP280;58439;51.046;13.692;2022-12-29T11:07:16;99291.59;;;22.05
70819;BMP280;58439;51.046;13.692;2022-12-29T11:09:45;99288.72;;;22.75
70819;BMP280;58439;51.046;13.692;2022-12-29T11:12:39;99283.22;;;19.00
70819;BMP280;58439;51.046;13.692;2022-12-29T11:17:48;99284.19;;;15.61
70819;BMP280;58439;51.046;13.692;2022-12-29T11:20:34;99285.06;;;15.06
70819;BMP280;58439;51.046;13.692;2022-12-29T11:23:03;99272.91;;;15.05
70819;BMP280;58439;51.046;13.692;2022-12-29T11:25:31;99265.13;;;15.10
70819;BMP280;58439;51.046;13.692;2022-12-29T11:28:15;99282.13;;;15.68
70819;BMP280;58439;51.046;13.692;2022-12-29T11:30:43;99291.84;;;16.43
70819;BMP280;58439;51.046;13.692;2022-12-29T11:33:10;99274.75;;;17.45
70819;BMP280;58439;51.046;13.692;2022-12-29T11:35:42;99269.94;;;19.99
70819;BMP280;58439;51.046;13.692;2022-12-29T11:38:22;99277.28;;;19.34
70819;BMP280;58439;51.046;13.692;2022-12-29T11:40:50;99276.69;;;18.62
70819;BMP280;58439;51.046;13.692;2022-12-29T11:47:53;99272.13;;;20.73
70819;BMP280;58439;51.046;13.692;2022-12-29T11:52:02;99269.16;;;18.99
70819;BMP280;58439;51.046;13.692;2022-12-29T11:54:58;99269.47;;;17.40
70819;BMP280;58439;51.046;13.692;2022-12-29T11:57:41;99271.72;;;16.64
70819;BMP280;58439;51.046;13.692;2022-12-29T12:00:16;99262.50;;;15.81
70819;BMP280;58439;51.046;13.692;2022-12-29T12:02:50;99260.13;;;15.14
70819;BMP280;58439;51.046;13.692;2022-12-29T12:05:40;99265.06;;;14.71
70819;BMP280;58439;51.046;13.692;2022-12-29T12:09:16;99249.84;;;14.40
70819;BMP280;58439;51.046;13.692;2022-12-29T12:11:46;99260.66;;;14.27
70819;BMP280;58439;51.046;13.692;2022-12-29T12:14:19;99248.78;;;14.24
70819;BMP280;58439;51.046;13.692;2022-12-29T12:21:00;99269.38;;;14.27
70819;BMP280;58439;51.046;13.692;2022-12-29T12:24:23;99257.31;;;14.65
70819;BMP280;58439;51.046;13.692;2022-12-29T12:27:21;99250.84;;;14.89
70819;BMP280;58439;51.046;13.692;2022-12-29T12:30:20;99267.22;;;14.91
70819;BMP280;58439;51.046;13.692;2022-12-29T12:33:38;99261.78;;;14.81
70819;BMP280;58439;51.046;13.692;2022-12-29T13:14:36;99227.03;;;19.91
70819;BMP280;58439;51.046;13.692;2022-12-29T13:17:42;99235.56;;;19.44
70819;BMP280;58439;51.046;13.692;2022-12-29T13:24:55;99243.66;;;17.98
70819;BMP280;58439;51.046;13.692;2022-12-29T13:28:01;99242.28;;;16.88
70819;BMP280;58439;51.046;13.692;2022-12-29T13:33:24;99245.56;;;15.72
70819;BMP280;58439;51.046;13.692;2022-12-29T13:36:00;99237.59;;;15.45
70819;BMP280;58439;51.046;13.692;2022-12-29T13:38:37;99245.72;;;15.38
70819;BMP280;58439;51.046;13.692;2022-12-29T13:41:16;99248.34;;;15.38
70819;BMP280;58439;51.046;13.692;2022-12-29T13:43:46;99250.09;;;15.32
70819;BMP280;58439;51.046;13.692;2022-12-29T13:50:39;99256.69;;;14.91
70819;BMP280;58439;51.046;13.692;2022-12-29T13:53:19;99258.63;;;14.79
70819;BMP280;58439;51.046;13.692;2022-12-29T13:55:54;99257.31;;;14.65
70819;BMP280;58439;51.046;13.692;2022-12-29T13:58:31;99266.19;;;14.59
70819;BMP280;58439;51.046;13.692;2022-12-29T14:03:57;99271.53;;;14.47
70819;BMP280;58439;51.046;13.692;2022-12-29T14:15:58;99258.72;;;14.22
70819;BMP280;58439;51.046;13.692;2022-12-29T14:19:35;99269.16;;;14.17
70819;BMP280;58439;51.046;13.692;2022-12-29T14:22:56;99265.97;;;14.15
70819;BMP280;58439;51.046;13.692;2022-12-29T14:42:19;99276.63;;;13.80
70819;BMP280;58439;51.046;13.692;2022-12-29T14:48:29;99289.22;;;13.66
70819;BMP280;58439;51.046;13.692;2022-12-29T14:50:57;99288.19;;;13.67
70819;BMP280;58439;51.046;13.692;2022-12-29T14:53:45;99285.47;;;13.62
70819;BMP280;58439;51.046;13.692;2022-12-29T14:56:15;99283.19;;;13.66
70819;BMP280;58439;51.046;13.692;2022-12-29T14:58:55;99285.22;;;13.64
70819;BMP280;58439;51.046;13.692;2022-12-29T15:01:47;99281.72;;;13.58
70819;BMP280;58439;51.046;13.692;2022-12-29T15:04:33;99274.09;;;13.45
70819;BMP280;58439;51.046;13.692;2022-12-29T15:12:27;99310.06;;;13.21
70819;BMP280;58439;51.046;13.692;2022-12-29T15:18:45;99294.97;;;13.16
70819;BMP280;58439;51.046;13.692;2022-12-29T15:21:34;99295.69;;;13.12
70819;BMP280;58439;51.046;13.692;2022-12-29T15:24:02;99314.19;;;13.17
70819;BMP280;58439;51.046;13.692;2022-12-29T15:26:37;99306.63;;;13.09
70819;BMP280;58439;51.046;13.692;2022-12-29T15:29:05;99313.16;;;13.06
70819;BMP280;58439;51.046;13.692;2022-12-29T15:31:45;99329.13;;;12.93
70819;BMP280;58439;51.046;13.692;2022-12-29T15:34:21;99322.72;;;12.89
70819;BMP280;58439;51.046;13.692;2022-12-29T15:37:05;99312.69;;;12.86
70819;BMP280;58439;51.046;13.692;2022-12-29T15:39:35;99332.75;;;12.92
70819;BMP280;58439;51.046;13.692;2022-12-29T15:42:23;99337.91;;;12.98
70819;BMP280;58439;51.046;13.692;2022-12-29T15:44:51;99346.00;;;12.85
70819;BMP280;58439;51.046;13.692;2022-12-29T15:47:25;99354.22;;;12.89
70819;BMP280;58439;51.046;13.692;2022-12-29T15:50:05;99354.75;;;12.79
70819;BMP280;58439;51.046;13.692;2022-12-29T15:52:33;99357.84;;;12.88
70819;BMP280;58439;51.046;13.692;2022-12-29T15:55:01;99365.69;;;12.76
70819;BMP280;58439;51.046;13.692;2022-12-29T16:04:07;99364.28;;;12.62
70819;BMP280;58439;51.046;13.692;2022-12-29T16:06:44;99375.53;;;12.51
70819;BMP280;58439;51.046;13.692;2022-12-29T16:09:40;99394.69;;;12.51
70819;BMP280;58439;51.046;13.692;2022-12-29T16:12:18;99394.38;;;12.41
70819;BMP280;58439;51.046;13.692;2022-12-29T16:18:37;99387.84;;;12.13
70819;BMP280;58439;51.046;13.692;2022-12-29T16:22:51;99397.19;;;12.09
70819;BMP280;58439;51.046;13.692;2022-12-29T16:27:15;99390.78;;;12.05
70819;BMP280;58439;51.046;13.692;2022-12-29T16:31:02;99399.09;;;12.02
70819;BMP280;58439;51.046;13.692;2022-12-29T16:34:47;99411.16;;;11.85
70819;BMP280;58439;51.046;13.692;2022-12-29T16:38:19;99406.44;;;11.69
70819;BMP280;58439;51.046;13.692;2022-12-29T16:41:01;99415.34;;;11.68
70819;BMP280;58439;51.046;13.692;2022-12-29T16:43:33;99408.59;;;11.53
70819;BMP280;58439;51.046;13.692;2022-12-29T16:48:34;99403.56;;;11.52
70819;BMP280;58439;51.046;13.692;2022-12-29T16:51:13;99401.94;;;11.57
70819;BMP280;58439;51.046;13.692;2022-12-29T16:58:29;99420.09;;;11.52
70819;BMP280;58439;51.046;13.692;2022-12-29T17:02:40;99414.63;;;11.54
70819;BMP280;58439;51.046;13.692;2022-12-29T17:06:08;99428.75;;;11.53
70819;BMP280;58439;51.046;13.692;2022-12-29T17:09:37;99430.81;;;11.44
70819;BMP280;58439;51.046;13.692;2022-12-29T17:12:49;99435.91;;;11.39
70819;BMP280;58439;51.046;13.692;2022-12-29T17:15:28;99438.78;;;11.31
70819;BMP280;58439;51.046;13.692;2022-12-29T17:17:59;99424.19;;;11.17
70819;BMP280;58439;51.046;13.692;2022-12-29T17:20:28;99432.25;;;11.15
70819;BMP280;58439;51.046;13.692;2022-12-29T17:22:57;99437.63;;;11.27
70819;BMP280;58439;51.046;13.692;2022-12-29T17:25:33;99436.59;;;11.28
70819;BMP280;58439;51.046;13.692;2022-12-29T17:28:20;99451.94;;;11.18
70819;BMP280;58439;51.046;13.692;2022-12-29T17:31:08;99435.66;;;11.16
70819;BMP280;58439;51.046;13.692;2022-12-29T17:35:17;99453.22;;;11.09
70819;BMP280;58439;51.046;13.692;2022-12-29T17:38:29;99449.59;;;11.10
70819;BMP280;58439;51.046;13.692;2022-12-29T17:42:23;99455.44;;;11.05
70819;BMP280;58439;51.046;13.692;2022-12-29T17:49:43;99436.28;;;10.73
70819;BMP280;58439;51.046;13.692;2022-12-29T17:52:29;99438.66;;;10.81
70819;BMP280;58439;51.046;13.692;2022-12-29T18:04:18;99455.00;;;10.70
70819;BMP280;58439;51.046;13.692;2022-12-29T18:08:04;99453.81;;;10.59
70819;BMP280;58439;51.046;13.692;2022-12-29T18:11:41;99454.28;;;10.56
70819;BMP280;58439;51.046;13.692;2022-12-29T18:14:35;99459.44;;;10.63
70819;BMP280;58439;51.046;13.692;2022-12-29T18:21:37;99463.06;;;10.62
70819;BMP280;58439;51.046;13.692;2022-12-29T18:24:52;99457.44;;;10.65
70819;BMP280;58439;51.046;13.692;2022-12-29T18:27:47;99456.41;;;10.66
70819;BMP280;58439;51.046;13.692;2022-12-29T18:30:15;99450.22;;;10.54
70819;BMP280;58439;51.046;13.692;2022-12-29T18:32:46;99449.03;;;10.43
70819;BMP280;58439;51.046;13.692;2022-12-29T18:35:21;99462.72;;;10.32
70819;BMP280;58439;51.046;13.692;2022-12-29T18:37:49;99462.75;;;10.25